sensor_id;sensor_type;location;lat;lon;timestamp;P1;P2;P0
70249;PMS5003;57644;48.416;-123.374;2023-02-18T00:01:07;2;2;
70249;PMS5003;57644;48.416;-123.374;2023-02-18T00:03:34;3;2;
70249;PMS5003;57644;48.416;-123.374;2023-02-18T00:08:35;0;0;
70249;PMS5003;57644;48.416;-123.374;2023-02-18T00:11:06;1;1;
70249;PMS5003;57644;48.416;-123.374;2023-02-18T00:13:36;1;1;
70249;PMS5003;57644;48.416;-123.374;2023-02-18T00:16:08;1;1;
70249;PMS5003;57644;48.416;-123.374;2023-02-18T00:18:37;2;2;
70249;PMS5003;57644;48.416;-123.374;2023-02-18T00:21:08;1;0;
70249;PMS5003;57644;48.416;-123.374;2023-02-18T00:23:38;0;0;
70249;PMS5003;57644;48.416;-123.374;2023-02-18T00:26:10;0;0;
70249;PMS5003;57644;48.416;-123.374;2023-02-18T00:28:39;1;1;
70249;PMS5003;57644;48.416;-123.374;2023-02-18T00:31:11;0;0;
70249;PMS5003;57644;48.416;-123.374;2023-02-18T00:33:40;2;1;
70249;PMS5003;57644;48.416;-123.374;2023-02-18T00:36:12;1;1;
70249;PMS5003;57644;48.416;-123.374;2023-02-18T00:38:43;1;1;
70249;PMS5003;57644;48.416;-123.374;2023-02-18T00:41:12;2;2;
70249;PMS5003;57644;48.416;-123.374;2023-02-18T00:43:42;1;1;
70249;PMS5003;57644;48.416;-123.374;2023-02-18T00:46:13;2;1;
70249;PMS5003;57644;48.416;-123.374;2023-02-18T00:48:43;2;2;
70249;PMS5003;57644;48.416;-123.374;2023-02-18T00:51:14;1;1;
70249;PMS5003;57644;48.416;-123.374;2023-02-18T00:53:44;1;1;
70249;PMS5003;57644;48.416;-123.374;2023-02-18T00:56:15;1;1;
70249;PMS5003;57644;48.416;-123.374;2023-02-18T00:58:45;1;1;
70249;PMS5003;57644;48.416;-123.374;2023-02-18T01:01:17;2;1;
70249;PMS5003;57644;48.416;-123.374;2023-02-18T01:03:47;2;1;
70249;PMS5003;57644;48.416;-123.374;2023-02-18T01:06:17;2;2;
70249;PMS5003;57644;48.416;-123.374;2023-02-18T01:08:47;1;1;
70249;PMS5003;57644;48.416;-123.374;2023-02-18T01:11:19;1;1;
70249;PMS5003;57644;48.416;-123.374;2023-02-18T01:13:49;1;1;
70249;PMS5003;57644;48.416;-123.374;2023-02-18T01:16:19;2;1;
70249;PMS5003;57644;48.416;-123.374;2023-02-18T01:18:50;1;1;
70249;PMS5003;57644;48.416;-123.374;2023-02-18T01:21:20;1;1;
70249;PMS5003;57644;48.416;-123.374;2023-02-18T01:23:51;1;0;
70249;PMS5003;57644;48.416;-123.374;2023-02-18T01:26:21;1;1;
70249;PMS5003;57644;48.416;-123.374;2023-02-18T01:28:51;1;1;
70249;PMS5003;57644;48.416;-123.374;2023-02-18T01:31:22;1;1;
70249;PMS5003;57644;48.416;-123.374;2023-02-18T01:33:53;1;1;
70249;PMS5003;57644;48.416;-123.374;2023-02-18T01:36:23;1;1;
70249;PMS5003;57644;48.416;-123.374;2023-02-18T01:38:54;1;1;
70249;PMS5003;57644;48.416;-123.374;2023-02-18T01:41:24;0;0;
70249;PMS5003;57644;48.416;-123.374;2023-02-18T01:46:25;0;0;
70249;PMS5003;57644;48.416;-123.374;2023-02-18T01:48:56;1;1;
70249;PMS5003;57644;48.416;-123.374;2023-02-18T01:51:27;1;0;
70249;PMS5003;57644;48.416;-123.374;2023-02-18T01:53:58;7;6;
70249;PMS5003;57644;48.416;-123.374;2023-02-18T01:56:28;4;3;
70249;PMS5003;57644;48.416;-123.374;2023-02-18T01:58:58;0;0;
70249;PMS5003;57644;48.416;-123.374;2023-02-18T02:01:28;1;1;
70249;PMS5003;57644;48.416;-123.374;2023-02-18T02:03:58;1;1;
70249;PMS5003;57644;48.416;-123.374;2023-02-18T02:06:29;1;1;
70249;PMS5003;57644;48.416;-123.374;2023-02-18T02:09:00;1;1;
70249;PMS5003;57644;48.416;-123.374;2023-02-18T02:11:34;2;2;
70249;PMS5003;57644;48.416;-123.374;2023-02-18T02:14:05;1;1;
70249;PMS5003;57644;48.416;-123.374;2023-02-18T02:16:33;2;2;
70249;PMS5003;57644;48.416;-123.374;2023-02-18T02:19:06;1;1;
70249;PMS5003;57644;48.416;-123.374;2023-02-18T02:21:38;0;0;
70249;PMS5003;57644;48.416;-123.374;2023-02-18T02:26:38;1;0;
70249;PMS5003;57644;48.416;-123.374;2023-02-18T02:36:36;2;2;
70249;PMS5003;57644;48.416;-123.374;2023-02-18T02:39:07;1;1;
70249;PMS5003;57644;48.416;-123.374;2023-02-18T02:41:40;3;3;
70249;PMS5003;57644;48.416;-123.374;2023-02-18T02:44:10;5;5;
70249;PMS5003;57644;48.416;-123.374;2023-02-18T02:46:37;6;5;
70249;PMS5003;57644;48.416;-123.374;2023-02-18T02:49:09;1;1;
70249;PMS5003;57644;48.416;-123.374;2023-02-18T02:51:39;1;1;
70249;PMS5003;57644;48.416;-123.374;2023-02-18T02:54:10;4;3;
70249;PMS5003;57644;48.416;-123.374;2023-02-18T02:56:39;6;5;
70249;PMS5003;57644;48.416;-123.374;2023-02-18T02:59:11;5;5;
70249;PMS5003;57644;48.416;-123.374;2023-02-18T03:01:42;6;5;
70249;PMS5003;57644;48.416;-123.374;2023-02-18T03:04:15;2;2;
70249;PMS5003;57644;48.416;-123.374;2023-02-18T03:06:45;5;4;
70249;PMS5003;57644;48.416;-123.374;2023-02-18T03:09:13;2;2;
70249;PMS5003;57644;48.416;-123.374;2023-02-18T03:11:43;6;5;
70249;PMS5003;57644;48.416;-123.374;2023-02-18T03:14:13;5;3;
70249;PMS5003;57644;48.416;-123.374;2023-02-18T03:16:44;2;2;
70249;PMS5003;57644;48.416;-123.374;2023-02-18T03:19:16;2;2;
70249;PMS5003;57644;48.416;-123.374;2023-02-18T03:21:44;2;1;
70249;PMS5003;57644;48.416;-123.374;2023-02-18T03:24:15;5;3;
70249;PMS5003;57644;48.416;-123.374;2023-02-18T03:26:46;4;3;
70249;PMS5003;57644;48.416;-123.374;2023-02-18T03:29:15;2;1;
70249;PMS5003;57644;48.416;-123.374;2023-02-18T03:31:46;3;2;
70249;PMS5003;57644;48.416;-123.374;2023-02-18T03:34:17;3;2;
70249;PMS5003;57644;48.416;-123.374;2023-02-18T03:36:47;4;3;
70249;PMS5003;57644;48.416;-123.374;2023-02-18T03:39:17;4;3;
70249;PMS5003;57644;48.416;-123.374;2023-02-18T03:41:47;1;1;
70249;PMS5003;57644;48.416;-123.374;2023-02-18T03:44:18;3;3;
70249;PMS5003;57644;48.416;-123.374;2023-02-18T03:46:48;1;1;
70249;PMS5003;57644;48.416;-123.374;2023-02-18T03:49:19;2;1;
70249;PMS5003;57644;48.416;-123.374;2023-02-18T03:51:49;0;0;
70249;PMS5003;57644;48.416;-123.374;2023-02-18T03:54:20;1;1;
70249;PMS5003;57644;48.416;-123.374;2023-02-18T03:56:52;1;1;
70249;PMS5003;57644;48.416;-123.374;2023-02-18T03:59:20;0;0;
70249;PMS5003;57644;48.416;-123.374;2023-02-18T04:01:51;1;1;
70249;PMS5003;57644;48.416;-123.374;2023-02-18T04:04:22;1;1;
70249;PMS5003;57644;48.416;-123.374;2023-02-18T04:06:52;0;0;
70249;PMS5003;57644;48.416;-123.374;2023-02-18T04:09:23;1;1;
70249;PMS5003;57644;48.416;-123.374;2023-02-18T04:11:53;1;1;
70249;PMS5003;57644;48.416;-123.374;2023-02-18T04:14:24;1;1;
70249;PMS5003;57644;48.416;-123.374;2023-02-18T04:16:54;6;3;
70249;PMS5003;57644;48.416;-123.374;2023-02-18T04:19:25;0;0;
70249;PMS5003;57644;48.416;-123.374;2023-02-18T04:21:55;1;1;
70249;PMS5003;57644;48.416;-123.374;2023-02-18T04:24:26;3;3;
70249;PMS5003;57644;48.416;-123.374;2023-02-18T04:26:56;0;0;
70249;PMS5003;57644;48.416;-123.374;2023-02-18T04:29:27;6;3;
70249;PMS5003;57644;48.416;-123.374;2023-02-18T04:31:57;2;2;
70249;PMS5003;57644;48.416;-123.374;2023-02-18T04:34:27;3;3;
70249;PMS5003;57644;48.416;-123.374;2023-02-18T04:36:58;5;4;
70249;PMS5003;57644;48.416;-123.374;2023-02-18T04:39:29;3;2;
70249;PMS5003;57644;48.416;-123.374;2023-02-18T04:41:59;4;4;
70249;PMS5003;57644;48.416;-123.374;2023-02-18T04:44:30;3;3;
70249;PMS5003;57644;48.416;-123.374;2023-02-18T04:47:01;25;19;
70249;PMS5003;57644;48.416;-123.374;2023-02-18T04:49:31;17;17;
70249;PMS5003;57644;48.416;-123.374;2023-02-18T04:52:02;5;5;
70249;PMS5003;57644;48.416;-123.374;2023-02-18T04:54:32;4;4;
70249;PMS5003;57644;48.416;-123.374;2023-02-18T04:57:03;7;6;
70249;PMS5003;57644;48.416;-123.374;2023-02-18T04:59:33;8;6;
70249;PMS5003;57644;48.416;-123.374;2023-02-18T05:02:04;5;4;
70249;PMS5003;57644;48.416;-123.374;2023-02-18T05:04:34;5;5;
70249;PMS5003;57644;48.416;-123.374;2023-02-18T05:07:04;6;4;
70249;PMS5003;57644;48.416;-123.374;2023-02-18T05:09:35;5;5;
70249;PMS5003;57644;48.416;-123.374;2023-02-18T05:12:06;5;5;
70249;PMS5003;57644;48.416;-123.374;2023-02-18T05:14:36;8;6;
70249;PMS5003;57644;48.416;-123.374;2023-02-18T05:17:07;2;2;
70249;PMS5003;57644;48.416;-123.374;2023-02-18T05:19:37;4;4;
70249;PMS5003;57644;48.416;-123.374;2023-02-18T05:22:08;4;3;
70249;PMS5003;57644;48.416;-123.374;2023-02-18T05:24:38;8;7;
70249;PMS5003;57644;48.416;-123.374;2023-02-18T05:27:09;11;8;
70249;PMS5003;57644;48.416;-123.374;2023-02-18T05:29:39;8;7;
70249;PMS5003;57644;48.416;-123.374;2023-02-18T05:32:09;4;4;
70249;PMS5003;57644;48.416;-123.374;2023-02-18T05:34:40;4;4;
70249;PMS5003;57644;48.416;-123.374;2023-02-18T05:37:11;4;4;
70249;PMS5003;57644;48.416;-123.374;2023-02-18T05:39:41;1;1;
70249;PMS5003;57644;48.416;-123.374;2023-02-18T05:42:12;2;2;
70249;PMS5003;57644;48.416;-123.374;2023-02-18T05:44:42;3;2;
70249;PMS5003;57644;48.416;-123.374;2023-02-18T05:47:13;2;1;
70249;PMS5003;57644;48.416;-123.374;2023-02-18T05:49:43;1;1;
70249;PMS5003;57644;48.416;-123.374;2023-02-18T05:52:13;1;1;
70249;PMS5003;57644;48.416;-123.374;2023-02-18T05:54:44;2;2;
70249;PMS5003;57644;48.416;-123.374;2023-02-18T05:57:14;1;1;
70249;PMS5003;57644;48.416;-123.374;2023-02-18T05:59:45;2;1;
70249;PMS5003;57644;48.416;-123.374;2023-02-18T06:02:15;2;1;
70249;PMS5003;57644;48.416;-123.374;2023-02-18T06:04:46;2;2;
70249;PMS5003;57644;48.416;-123.374;2023-02-18T06:07:16;2;0;
70249;PMS5003;57644;48.416;-123.374;2023-02-18T06:09:47;1;1;
70249;PMS5003;57644;48.416;-123.374;2023-02-18T06:12:18;1;1;
70249;PMS5003;57644;48.416;-123.374;2023-02-18T06:14:48;2;0;
70249;PMS5003;57644;48.416;-123.374;2023-02-18T06:17:19;0;0;
70249;PMS5003;57644;48.416;-123.374;2023-02-18T06:19:49;0;0;
70249;PMS5003;57644;48.416;-123.374;2023-02-18T06:22:19;0;0;
70249;PMS5003;57644;48.416;-123.374;2023-02-18T06:24:50;1;1;
70249;PMS5003;57644;48.416;-123.374;2023-02-18T06:27:21;1;1;
70249;PMS5003;57644;48.416;-123.374;2023-02-18T06:29:51;1;0;
70249;PMS5003;57644;48.416;-123.374;2023-02-18T06:32:22;2;1;
70249;PMS5003;57644;48.416;-123.374;2023-02-18T06:34:52;2;2;
70249;PMS5003;57644;48.416;-123.374;2023-02-18T06:37:23;0;0;
70249;PMS5003;57644;48.416;-123.374;2023-02-18T06:39:53;0;0;
70249;PMS5003;57644;48.416;-123.374;2023-02-18T06:42:24;1;1;
70249;PMS5003;57644;48.416;-123.374;2023-02-18T06:44:54;2;1;
70249;PMS5003;57644;48.416;-123.374;2023-02-18T06:47:25;1;1;
70249;PMS5003;57644;48.416;-123.374;2023-02-18T06:49:55;1;1;
70249;PMS5003;57644;48.416;-123.374;2023-02-18T06:52:26;1;1;
70249;PMS5003;57644;48.416;-123.374;2023-02-18T06:54:56;2;2;
70249;PMS5003;57644;48.416;-123.374;2023-02-18T06:57:27;0;0;
70249;PMS5003;57644;48.416;-123.374;2023-02-18T06:59:57;0;0;
70249;PMS5003;57644;48.416;-123.374;2023-02-18T07:02:28;2;1;
70249;PMS5003;57644;48.416;-123.374;2023-02-18T07:04:59;0;0;
70249;PMS5003;57644;48.416;-123.374;2023-02-18T07:07:29;2;2;
70249;PMS5003;57644;48.416;-123.374;2023-02-18T07:09:59;1;1;
70249;PMS5003;57644;48.416;-123.374;2023-02-18T07:12:31;1;0;
70249;PMS5003;57644;48.416;-123.374;2023-02-18T07:15:00;1;1;
70249;PMS5003;57644;48.416;-123.374;2023-02-18T07:17:31;1;1;
70249;PMS5003;57644;48.416;-123.374;2023-02-18T07:20:02;1;1;
70249;PMS5003;57644;48.416;-123.374;2023-02-18T07:22:32;0;0;
70249;PMS5003;57644;48.416;-123.374;2023-02-18T07:25:03;1;0;
70249;PMS5003;57644;48.416;-123.374;2023-02-18T07:27:33;0;0;
70249;PMS5003;57644;48.416;-123.374;2023-02-18T07:30:04;2;1;
70249;PMS5003;57644;48.416;-123.374;2023-02-18T07:32:34;2;1;
70249;PMS5003;57644;48.416;-123.374;2023-02-18T07:35:05;3;0;
70249;PMS5003;57644;48.416;-123.374;2023-02-18T07:37:36;2;1;
70249;PMS5003;57644;48.416;-123.374;2023-02-18T07:40:06;1;1;
70249;PMS5003;57644;48.416;-123.374;2023-02-18T07:42:36;1;1;
70249;PMS5003;57644;48.416;-123.374;2023-02-18T07:45:08;1;1;
70249;PMS5003;57644;48.416;-123.374;2023-02-18T07:47:38;0;0;
70249;PMS5003;57644;48.416;-123.374;2023-02-18T07:50:08;0;0;
70249;PMS5003;57644;48.416;-123.374;2023-02-18T07:52:38;0;0;
70249;PMS5003;57644;48.416;-123.374;2023-02-18T07:55:09;4;3;
70249;PMS5003;57644;48.416;-123.374;2023-02-18T07:57:40;0;0;
70249;PMS5003;57644;48.416;-123.374;2023-02-18T08:00:11;1;1;
70249;PMS5003;57644;48.416;-123.374;2023-02-18T08:02:41;1;1;
70249;PMS5003;57644;48.416;-123.374;2023-02-18T08:05:12;1;1;
70249;PMS5003;57644;48.416;-123.374;2023-02-18T08:07:42;1;1;
70249;PMS5003;57644;48.416;-123.374;2023-02-18T08:10:12;1;1;
70249;PMS5003;57644;48.416;-123.374;2023-02-18T08:12:43;2;2;
70249;PMS5003;57644;48.416;-123.374;2023-02-18T08:15:13;1;1;
70249;PMS5003;57644;48.416;-123.374;2023-02-18T08:17:44;0;0;
70249;PMS5003;57644;48.416;-123.374;2023-02-18T08:20:14;1;0;
70249;PMS5003;57644;48.416;-123.374;2023-02-18T08:22:45;1;1;
70249;PMS5003;57644;48.416;-123.374;2023-02-18T08:25:15;2;1;
70249;PMS5003;57644;48.416;-123.374;2023-02-18T08:27:46;0;0;
70249;PMS5003;57644;48.416;-123.374;2023-02-18T08:30:16;0;0;
70249;PMS5003;57644;48.416;-123.374;2023-02-18T08:32:47;1;1;
70249;PMS5003;57644;48.416;-123.374;2023-02-18T08:35:17;1;1;
70249;PMS5003;57644;48.416;-123.374;2023-02-18T08:37:48;2;1;
70249;PMS5003;57644;48.416;-123.374;2023-02-18T08:40:19;1;1;
70249;PMS5003;57644;48.416;-123.374;2023-02-18T08:42:49;1;1;
70249;PMS5003;57644;48.416;-123.374;2023-02-18T08:45:20;0;0;
70249;PMS5003;57644;48.416;-123.374;2023-02-18T08:47:50;1;0;
70249;PMS5003;57644;48.416;-123.374;2023-02-18T08:50:21;0;0;
70249;PMS5003;57644;48.416;-123.374;2023-02-18T08:52:51;0;0;
70249;PMS5003;57644;48.416;-123.374;2023-02-18T08:55:22;0;0;
70249;PMS5003;57644;48.416;-123.374;2023-02-18T08:57:52;0;0;
70249;PMS5003;57644;48.416;-123.374;2023-02-18T09:00:23;1;1;
70249;PMS5003;57644;48.416;-123.374;2023-02-18T09:02:53;0;0;
70249;PMS5003;57644;48.416;-123.374;2023-02-18T09:05:24;0;0;
70249;PMS5003;57644;48.416;-123.374;2023-02-18T09:07:55;0;0;
70249;PMS5003;57644;48.416;-123.374;2023-02-18T09:10:25;0;0;
70249;PMS5003;57644;48.416;-123.374;2023-02-18T09:12:56;0;0;
70249;PMS5003;57644;48.416;-123.374;2023-02-18T09:15:26;0;0;
70249;PMS5003;57644;48.416;-123.374;2023-02-18T09:17:56;1;1;
70249;PMS5003;57644;48.416;-123.374;2023-02-18T09:20:27;0;0;
70249;PMS5003;57644;48.416;-123.374;2023-02-18T09:22:57;0;0;
70249;PMS5003;57644;48.416;-123.374;2023-02-18T09:25:28;1;1;
70249;PMS5003;57644;48.416;-123.374;2023-02-18T09:27:58;0;0;
70249;PMS5003;57644;48.416;-123.374;2023-02-18T09:30:29;0;0;
70249;PMS5003;57644;48.416;-123.374;2023-02-18T09:33:00;0;0;
70249;PMS5003;57644;48.416;-123.374;2023-02-18T09:35:30;0;0;
70249;PMS5003;57644;48.416;-123.374;2023-02-18T09:38:01;4;4;
70249;PMS5003;57644;48.416;-123.374;2023-02-18T09:40:32;0;0;
70249;PMS5003;57644;48.416;-123.374;2023-02-18T09:43:02;1;1;
70249;PMS5003;57644;48.416;-123.374;2023-02-18T09:45:32;0;0;
70249;PMS5003;57644;48.416;-123.374;2023-02-18T09:48:03;1;1;
70249;PMS5003;57644;48.416;-123.374;2023-02-18T09:50:33;0;0;
70249;PMS5003;57644;48.416;-123.374;2023-02-18T09:53:04;0;0;
70249;PMS5003;57644;48.416;-123.374;2023-02-18T09:55:35;0;0;
70249;PMS5003;57644;48.416;-123.374;2023-02-18T09:58:06;0;0;
70249;PMS5003;57644;48.416;-123.374;2023-02-18T10:00:36;0;0;
70249;PMS5003;57644;48.416;-123.374;2023-02-18T10:03:07;0;0;
70249;PMS5003;57644;48.416;-123.374;2023-02-18T10:05:37;1;1;
70249;PMS5003;57644;48.416;-123.374;2023-02-18T10:08:12;0;0;
70249;PMS5003;57644;48.416;-123.374;2023-02-18T10:10:39;0;0;
70249;PMS5003;57644;48.416;-123.374;2023-02-18T10:13:11;1;0;
70249;PMS5003;57644;48.416;-123.374;2023-02-18T10:15:39;0;0;
70249;PMS5003;57644;48.416;-123.374;2023-02-18T10:18:16;0;0;
70249;PMS5003;57644;48.416;-123.374;2023-02-18T10:20:40;1;1;
70249;PMS5003;57644;48.416;-123.374;2023-02-18T10:23:10;0;0;
70249;PMS5003;57644;48.416;-123.374;2023-02-18T10:25:42;0;0;
70249;PMS5003;57644;48.416;-123.374;2023-02-18T10:28:12;0;0;
70249;PMS5003;57644;48.416;-123.374;2023-02-18T10:30:45;0;0;
70249;PMS5003;57644;48.416;-123.374;2023-02-18T10:33:16;1;1;
70249;PMS5003;57644;48.416;-123.374;2023-02-18T10:35:44;0;0;
70249;PMS5003;57644;48.416;-123.374;2023-02-18T10:38:15;0;0;
70249;PMS5003;57644;48.416;-123.374;2023-02-18T10:40:47;0;0;
70249;PMS5003;57644;48.416;-123.374;2023-02-18T10:43:16;0;0;
70249;PMS5003;57644;48.416;-123.374;2023-02-18T10:45:45;0;0;
70249;PMS5003;57644;48.416;-123.374;2023-02-18T10:48:20;0;0;
70249;PMS5003;57644;48.416;-123.374;2023-02-18T10:50:46;0;0;
70249;PMS5003;57644;48.416;-123.374;2023-02-18T10:53:18;1;0;
70249;PMS5003;57644;48.416;-123.374;2023-02-18T10:55:47;0;0;
70249;PMS5003;57644;48.416;-123.374;2023-02-18T11:00:48;0;0;
70249;PMS5003;57644;48.416;-123.374;2023-02-18T11:03:19;0;0;
70249;PMS5003;57644;48.416;-123.374;2023-02-18T11:05:50;0;0;
70249;PMS5003;57644;48.416;-123.374;2023-02-18T11:08:20;0;0;
70249;PMS5003;57644;48.416;-123.374;2023-02-18T11:10:50;0;0;
70249;PMS5003;57644;48.416;-123.374;2023-02-18T11:13:23;1;1;
70249;PMS5003;57644;48.416;-123.374;2023-02-18T11:15:56;0;0;
70249;PMS5003;57644;48.416;-123.374;2023-02-18T11:18:27;0;0;
70249;PMS5003;57644;48.416;-123.374;2023-02-18T11:20:54;0;0;
70249;PMS5003;57644;48.416;-123.374;2023-02-18T11:23:24;0;0;
70249;PMS5003;57644;48.416;-123.374;2023-02-18T11:25:56;0;0;
70249;PMS5003;57644;48.416;-123.374;2023-02-18T11:30:55;1;1;
70249;PMS5003;57644;48.416;-123.374;2023-02-18T11:33:25;0;0;
70249;PMS5003;57644;48.416;-123.374;2023-02-18T11:35:56;0;0;
70249;PMS5003;57644;48.416;-123.374;2023-02-18T11:38:27;0;0;
70249;PMS5003;57644;48.416;-123.374;2023-02-18T11:41:00;1;1;
70249;PMS5003;57644;48.416;-123.374;2023-02-18T11:43:28;0;0;
70249;PMS5003;57644;48.416;-123.374;2023-02-18T11:48:28;0;0;
70249;PMS5003;57644;48.416;-123.374;2023-02-18T11:50:59;2;1;
70249;PMS5003;57644;48.416;-123.374;2023-02-18T11:53:30;1;0;
70249;PMS5003;57644;48.416;-123.374;2023-02-18T11:56:00;0;0;
70249;PMS5003;57644;48.416;-123.374;2023-02-18T11:58:32;0;0;
70249;PMS5003;57644;48.416;-123.374;2023-02-18T12:01:01;0;0;
70249;PMS5003;57644;48.416;-123.374;2023-02-18T12:03:32;1;1;
70249;PMS5003;57644;48.416;-123.374;2023-02-18T12:06:03;1;1;
70249;PMS5003;57644;48.416;-123.374;2023-02-18T12:08:33;0;0;
70249;PMS5003;57644;48.416;-123.374;2023-02-18T12:11:04;0;0;
70249;PMS5003;57644;48.416;-123.374;2023-02-18T12:13:34;1;0;
70249;PMS5003;57644;48.416;-123.374;2023-02-18T12:16:06;0;0;
70249;PMS5003;57644;48.416;-123.374;2023-02-18T12:21:08;0;0;
70249;PMS5003;57644;48.416;-123.374;2023-02-18T12:23:36;0;0;
70249;PMS5003;57644;48.416;-123.374;2023-02-18T12:26:09;0;0;
70249;PMS5003;57644;48.416;-123.374;2023-02-18T12:28:40;0;0;
70249;PMS5003;57644;48.416;-123.374;2023-02-18T12:31:11;0;0;
70249;PMS5003;57644;48.416;-123.374;2023-02-18T12:33:40;0;0;
70249;PMS5003;57644;48.416;-123.374;2023-02-18T12:36:11;0;0;
70249;PMS5003;57644;48.416;-123.374;2023-02-18T12:41:13;0;0;
70249;PMS5003;57644;48.416;-123.374;2023-02-18T12:43:42;0;0;
70249;PMS5003;57644;48.416;-123.374;2023-02-18T12:46:15;0;0;
70249;PMS5003;57644;48.416;-123.374;2023-02-18T12:48:45;0;0;
70249;PMS5003;57644;48.416;-123.374;2023-02-18T12:51:15;0;0;
70249;PMS5003;57644;48.416;-123.374;2023-02-18T12:53:46;0;0;
70249;PMS5003;57644;48.416;-123.374;2023-02-18T12:58:45;0;0;
70249;PMS5003;57644;48.416;-123.374;2023-02-18T13:01:16;0;0;
70249;PMS5003;57644;48.416;-123.374;2023-02-18T13:03:48;1;1;
70249;PMS5003;57644;48.416;-123.374;2023-02-18T13:06:18;1;1;
70249;PMS5003;57644;48.416;-123.374;2023-02-18T13:08:47;1;1;
70249;PMS5003;57644;48.416;-123.374;2023-02-18T13:11:18;0;0;
70249;PMS5003;57644;48.416;-123.374;2023-02-18T13:13:48;1;1;
70249;PMS5003;57644;48.416;-123.374;2023-02-18T13:16:16;1;1;
70249;PMS5003;57644;48.416;-123.374;2023-02-18T13:18:49;0;0;
70249;PMS5003;57644;48.416;-123.374;2023-02-18T13:21:17;0;0;
70249;PMS5003;57644;48.416;-123.374;2023-02-18T13:23:49;0;0;
70249;PMS5003;57644;48.416;-123.374;2023-02-18T13:26:19;2;2;
70249;PMS5003;57644;48.416;-123.374;2023-02-18T13:28:50;3;2;
70249;PMS5003;57644;48.416;-123.374;2023-02-18T13:31:23;3;2;
70249;PMS5003;57644;48.416;-123.374;2023-02-18T13:33:51;2;2;
70249;PMS5003;57644;48.416;-123.374;2023-02-18T13:36:24;2;2;
70249;PMS5003;57644;48.416;-123.374;2023-02-18T13:38:54;2;2;
70249;PMS5003;57644;48.416;-123.374;2023-02-18T13:41:21;2;2;
70249;PMS5003;57644;48.416;-123.374;2023-02-18T13:43:52;1;1;
70249;PMS5003;57644;48.416;-123.374;2023-02-18T13:46:23;1;1;
70249;PMS5003;57644;48.416;-123.374;2023-02-18T13:48:53;2;2;
70249;PMS5003;57644;48.416;-123.374;2023-02-18T13:51:27;3;3;
70249;PMS5003;57644;48.416;-123.374;2023-02-18T13:53:57;2;2;
70249;PMS5003;57644;48.416;-123.374;2023-02-18T13:56:26;2;2;
70249;PMS5003;57644;48.416;-123.374;2023-02-18T13:58:58;3;3;
70249;PMS5003;57644;48.416;-123.374;2023-02-18T14:03:57;2;1;
70249;PMS5003;57644;48.416;-123.374;2023-02-18T14:06:28;1;1;
70249;PMS5003;57644;48.416;-123.374;2023-02-18T14:09:02;0;0;
70249;PMS5003;57644;48.416;-123.374;2023-02-18T14:19:00;1;1;
70249;PMS5003;57644;48.416;-123.374;2023-02-18T14:24:01;0;0;
70249;PMS5003;57644;48.416;-123.374;2023-02-18T14:26:32;0;0;
70249;PMS5003;57644;48.416;-123.374;2023-02-18T14:29:04;0;0;
70249;PMS5003;57644;48.416;-123.374;2023-02-18T14:31:39;0;0;
70249;PMS5003;57644;48.416;-123.374;2023-02-18T14:36:34;0;0;
70249;PMS5003;57644;48.416;-123.374;2023-02-18T14:39:05;0;0;
70249;PMS5003;57644;48.416;-123.374;2023-02-18T14:41:39;0;0;
70249;PMS5003;57644;48.416;-123.374;2023-02-18T14:46:38;0;0;
70249;PMS5003;57644;48.416;-123.374;2023-02-18T14:49:10;0;0;
70249;PMS5003;57644;48.416;-123.374;2023-02-18T14:51:36;0;0;
70249;PMS5003;57644;48.416;-123.374;2023-02-18T14:54:09;0;0;
70249;PMS5003;57644;48.416;-123.374;2023-02-18T14:56:38;0;0;
70249;PMS5003;57644;48.416;-123.374;2023-02-18T14:59:09;0;0;
70249;PMS5003;57644;48.416;-123.374;2023-02-18T15:01:39;5;3;
70249;PMS5003;57644;48.416;-123.374;2023-02-18T15:04:11;0;0;
70249;PMS5003;57644;48.416;-123.374;2023-02-18T15:06:40;1;1;
70249;PMS5003;57644;48.416;-123.374;2023-02-18T15:09:12;0;0;
70249;PMS5003;57644;48.416;-123.374;2023-02-18T15:11:42;0;0;
70249;PMS5003;57644;48.416;-123.374;2023-02-18T15:14:15;0;0;
70249;PMS5003;57644;48.416;-123.374;2023-02-18T15:16:42;1;0;
70249;PMS5003;57644;48.416;-123.374;2023-02-18T15:19:13;0;0;
70249;PMS5003;57644;48.416;-123.374;2023-02-18T15:21:43;0;0;
70249;PMS5003;57644;48.416;-123.374;2023-02-18T15:24:16;0;0;
70249;PMS5003;57644;48.416;-123.374;2023-02-18T15:26:45;0;0;
70249;PMS5003;57644;48.416;-123.374;2023-02-18T15:29:17;0;0;
70249;PMS5003;57644;48.416;-123.374;2023-02-18T15:31:46;0;0;
70249;PMS5003;57644;48.416;-123.374;2023-02-18T15:36:48;0;0;
70249;PMS5003;57644;48.416;-123.374;2023-02-18T15:39:17;0;0;
70249;PMS5003;57644;48.416;-123.374;2023-02-18T15:41:51;0;0;
70249;PMS5003;57644;48.416;-123.374;2023-02-18T15:44:19;0;0;
70249;PMS5003;57644;48.416;-123.374;2023-02-18T15:46:48;0;0;
70249;PMS5003;57644;48.416;-123.374;2023-02-18T15:49:19;1;1;
70249;PMS5003;57644;48.416;-123.374;2023-02-18T15:51:49;0;0;
70249;PMS5003;57644;48.416;-123.374;2023-02-18T15:54:21;1;1;
70249;PMS5003;57644;48.416;-123.374;2023-02-18T15:56:51;0;0;
70249;PMS5003;57644;48.416;-123.374;2023-02-18T15:59:23;0;0;
70249;PMS5003;57644;48.416;-123.374;2023-02-18T16:01:52;0;0;
70249;PMS5003;57644;48.416;-123.374;2023-02-18T16:04:23;1;0;
70249;PMS5003;57644;48.416;-123.374;2023-02-18T16:06:53;1;1;
70249;PMS5003;57644;48.416;-123.374;2023-02-18T16:09:24;1;1;
70249;PMS5003;57644;48.416;-123.374;2023-02-18T16:11:54;1;1;
70249;PMS5003;57644;48.416;-123.374;2023-02-18T16:14:27;1;1;
70249;PMS5003;57644;48.416;-123.374;2023-02-18T16:19:25;1;1;
70249;PMS5003;57644;48.416;-123.374;2023-02-18T16:21:55;3;1;
70249;PMS5003;57644;48.416;-123.374;2023-02-18T16:24:26;1;1;
70249;PMS5003;57644;48.416;-123.374;2023-02-18T16:26:57;1;1;
70249;PMS5003;57644;48.416;-123.374;2023-02-18T16:29:33;1;1;
70249;PMS5003;57644;48.416;-123.374;2023-02-18T16:31:57;1;1;
70249;PMS5003;57644;48.416;-123.374;2023-02-18T16:34:28;2;2;
70249;PMS5003;57644;48.416;-123.374;2023-02-18T16:36:59;2;2;
70249;PMS5003;57644;48.416;-123.374;2023-02-18T16:39:30;1;1;
70249;PMS5003;57644;48.416;-123.374;2023-02-18T16:42:00;2;2;
70249;PMS5003;57644;48.416;-123.374;2023-02-18T16:44:31;3;2;
70249;PMS5003;57644;48.416;-123.374;2023-02-18T16:47:01;1;1;
70249;PMS5003;57644;48.416;-123.374;2023-02-18T16:49:31;2;1;
70249;PMS5003;57644;48.416;-123.374;2023-02-18T16:52:04;1;1;
70249;PMS5003;57644;48.416;-123.374;2023-02-18T16:54:32;1;1;
70249;PMS5003;57644;48.416;-123.374;2023-02-18T16:57:02;2;2;
70249;PMS5003;57644;48.416;-123.374;2023-02-18T16:59:33;1;1;
70249;PMS5003;57644;48.416;-123.374;2023-02-18T17:02:03;4;4;
70249;PMS5003;57644;48.416;-123.374;2023-02-18T17:04:34;8;7;
70249;PMS5003;57644;48.416;-123.374;2023-02-18T17:07:07;3;3;
70249;PMS5003;57644;48.416;-123.374;2023-02-18T17:09:35;3;3;
70249;PMS5003;57644;48.416;-123.374;2023-02-18T17:12:07;2;2;
70249;PMS5003;57644;48.416;-123.374;2023-02-18T17:14:37;1;1;